sensor_id;sensor_type;location;lat;lon;timestamp;P1;durP1;ratioP1;P2;durP2;ratioP2
23802;SDS011;12082;51.786;6.018;2023-01-09T00:00:24;11.60;;;10.90;;
23802;SDS011;12082;51.786;6.018;2023-01-09T00:02:50;11.73;;;11.13;;
23802;SDS011;12082;51.786;6.018;2023-01-09T00:05:17;12.23;;;11.53;;
23802;SDS011;12082;51.786;6.018;2023-01-09T00:07:43;11.93;;;11.33;;
23802;SDS011;12082;51.786;6.018;2023-01-09T00:10:09;11.33;;;10.70;;
23802;SDS011;12082;51.786;6.018;2023-01-09T00:12:35;11.67;;;10.73;;
23802;SDS011;12082;51.786;6.018;2023-01-09T00:15:02;10.40;;;9.90;;
23802;SDS011;12082;51.786;6.018;2023-01-09T00:17:28;11.03;;;10.30;;
23802;SDS011;12082;51.786;6.018;2023-01-09T00:19:54;10.40;;;9.80;;
23802;SDS011;12082;51.786;6.018;2023-01-09T00:22:20;10.50;;;9.90;;
23802;SDS011;12082;51.786;6.018;2023-01-09T00:24:46;10.60;;;9.97;;
23802;SDS011;12082;51.786;6.018;2023-01-09T00:27:12;10.43;;;9.63;;
23802;SDS011;12082;51.786;6.018;2023-01-09T00:29:38;10.30;;;9.70;;
23802;SDS011;12082;51.786;6.018;2023-01-09T00:32:06;11.10;;;10.30;;
23802;SDS011;12082;51.786;6.018;2023-01-09T00:34:34;10.40;;;9.87;;
23802;SDS011;12082;51.786;6.018;2023-01-09T00:37:01;10.70;;;9.83;;
23802;SDS011;12082;51.786;6.018;2023-01-09T00:39:27;9.90;;;9.40;;
23802;SDS011;12082;51.786;6.018;2023-01-09T00:41:53;12.10;;;10.60;;
23802;SDS011;12082;51.786;6.018;2023-01-09T00:44:24;11.33;;;10.73;;
23802;SDS011;12082;51.786;6.018;2023-01-09T00:46:55;11.80;;;11.00;;
23802;SDS011;12082;51.786;6.018;2023-01-09T00:49:22;10.57;;;9.97;;
23802;SDS011;12082;51.786;6.018;2023-01-09T00:51:48;10.43;;;9.90;;
23802;SDS011;12082;51.786;6.018;2023-01-09T00:54:15;10.13;;;9.63;;
23802;SDS011;12082;51.786;6.018;2023-01-09T00:56:41;10.13;;;9.60;;
23802;SDS011;12082;51.786;6.018;2023-01-09T00:59:08;10.73;;;9.90;;
23802;SDS011;12082;51.786;6.018;2023-01-09T01:01:34;10.83;;;10.23;;
23802;SDS011;12082;51.786;6.018;2023-01-09T01:04:00;11.57;;;10.97;;
23802;SDS011;12082;51.786;6.018;2023-01-09T01:06:48;10.93;;;10.30;;
23802;SDS011;12082;51.786;6.018;2023-01-09T01:09:33;11.37;;;10.67;;
23802;SDS011;12082;51.786;6.018;2023-01-09T01:11:59;11.50;;;10.83;;
23802;SDS011;12082;51.786;6.018;2023-01-09T01:14:30;12.20;;;11.33;;
23802;SDS011;12082;51.786;6.018;2023-01-09T01:16:56;11.77;;;11.17;;
23802;SDS011;12082;51.786;6.018;2023-01-09T01:19:22;12.03;;;11.43;;
23802;SDS011;12082;51.786;6.018;2023-01-09T01:21:48;13.33;;;12.27;;
23802;SDS011;12082;51.786;6.018;2023-01-09T01:24:14;12.40;;;11.80;;
23802;SDS011;12082;51.786;6.018;2023-01-09T01:26:43;13.03;;;12.10;;
23802;SDS011;12082;51.786;6.018;2023-01-09T01:29:09;12.43;;;11.63;;
23802;SDS011;12082;51.786;6.018;2023-01-09T01:31:35;11.73;;;11.23;;
23802;SDS011;12082;51.786;6.018;2023-01-09T01:34:01;11.73;;;11.10;;
23802;SDS011;12082;51.786;6.018;2023-01-09T01:36:27;12.13;;;11.40;;
23802;SDS011;12082;51.786;6.018;2023-01-09T01:38:53;12.80;;;12.00;;
23802;SDS011;12082;51.786;6.018;2023-01-09T01:41:19;11.77;;;10.80;;
23802;SDS011;12082;51.786;6.018;2023-01-09T01:43:58;11.73;;;11.13;;
23802;SDS011;12082;51.786;6.018;2023-01-09T01:46:24;10.50;;;10.00;;
23802;SDS011;12082;51.786;6.018;2023-01-09T01:49:03;10.80;;;10.30;;
23802;SDS011;12082;51.786;6.018;2023-01-09T01:51:31;11.13;;;10.43;;
23802;SDS011;12082;51.786;6.018;2023-01-09T01:53:59;11.27;;;10.67;;
23802;SDS011;12082;51.786;6.018;2023-01-09T02:01:21;11.07;;;10.33;;
23802;SDS011;12082;51.786;6.018;2023-01-09T02:03:47;11.97;;;10.97;;
23802;SDS011;12082;51.786;6.018;2023-01-09T02:06:14;12.10;;;11.10;;
23802;SDS011;12082;51.786;6.018;2023-01-09T02:08:40;11.17;;;10.60;;
23802;SDS011;12082;51.786;6.018;2023-01-09T02:11:06;11.87;;;11.23;;
23802;SDS011;12082;51.786;6.018;2023-01-09T02:13:33;11.40;;;10.70;;
23802;SDS011;12082;51.786;6.018;2023-01-09T02:16:13;11.37;;;10.60;;
23802;SDS011;12082;51.786;6.018;2023-01-09T02:18:53;12.00;;;11.00;;
23802;SDS011;12082;51.786;6.018;2023-01-09T02:23:54;12.03;;;11.00;;
23802;SDS011;12082;51.786;6.018;2023-01-09T02:29:11;11.70;;;10.70;;
23802;SDS011;12082;51.786;6.018;2023-01-09T02:31:52;14.90;;;11.07;;
23802;SDS011;12082;51.786;6.018;2023-01-09T02:39:22;11.60;;;10.70;;
23802;SDS011;12082;51.786;6.018;2023-01-09T02:41:59;12.57;;;11.57;;
23802;SDS011;12082;51.786;6.018;2023-01-09T02:44:28;11.53;;;10.67;;
23802;SDS011;12082;51.786;6.018;2023-01-09T02:46:59;13.07;;;12.10;;
23802;SDS011;12082;51.786;6.018;2023-01-09T02:49:25;12.57;;;11.87;;
23802;SDS011;12082;51.786;6.018;2023-01-09T02:51:53;12.67;;;11.80;;
23802;SDS011;12082;51.786;6.018;2023-01-09T02:54:36;13.43;;;12.50;;
23802;SDS011;12082;51.786;6.018;2023-01-09T02:57:15;12.90;;;12.20;;
23802;SDS011;12082;51.786;6.018;2023-01-09T03:05:06;13.10;;;11.90;;
23802;SDS011;12082;51.786;6.018;2023-01-09T03:07:36;12.40;;;11.40;;
23802;SDS011;12082;51.786;6.018;2023-01-09T03:10:07;12.17;;;11.33;;
23802;SDS011;12082;51.786;6.018;2023-01-09T03:12:35;11.83;;;11.13;;
23802;SDS011;12082;51.786;6.018;2023-01-09T03:15:01;11.87;;;11.23;;
23802;SDS011;12082;51.786;6.018;2023-01-09T03:17:36;12.03;;;11.40;;
23802;SDS011;12082;51.786;6.018;2023-01-09T03:20:03;11.70;;;11.00;;
23802;SDS011;12082;51.786;6.018;2023-01-09T03:22:29;12.53;;;11.53;;
23802;SDS011;12082;51.786;6.018;2023-01-09T03:24:55;13.37;;;12.40;;
23802;SDS011;12082;51.786;6.018;2023-01-09T03:27:21;12.60;;;11.80;;
23802;SDS011;12082;51.786;6.018;2023-01-09T03:29:47;13.50;;;12.13;;
23802;SDS011;12082;51.786;6.018;2023-01-09T03:32:13;12.97;;;11.97;;
23802;SDS011;12082;51.786;6.018;2023-01-09T03:34:39;12.03;;;11.20;;
23802;SDS011;12082;51.786;6.018;2023-01-09T03:37:05;12.43;;;11.47;;
23802;SDS011;12082;51.786;6.018;2023-01-09T03:39:31;12.77;;;11.90;;
23802;SDS011;12082;51.786;6.018;2023-01-09T03:41:57;13.60;;;12.37;;
23802;SDS011;12082;51.786;6.018;2023-01-09T03:44:23;13.60;;;12.43;;
23802;SDS011;12082;51.786;6.018;2023-01-09T03:46:49;13.77;;;12.60;;
23802;SDS011;12082;51.786;6.018;2023-01-09T03:49:15;14.10;;;12.70;;
23802;SDS011;12082;51.786;6.018;2023-01-09T03:51:41;14.10;;;12.70;;
23802;SDS011;12082;51.786;6.018;2023-01-09T03:54:08;13.40;;;12.00;;
23802;SDS011;12082;51.786;6.018;2023-01-09T03:56:34;14.00;;;12.67;;
23802;SDS011;12082;51.786;6.018;2023-01-09T03:59:00;13.90;;;12.67;;
23802;SDS011;12082;51.786;6.018;2023-01-09T04:01:26;13.80;;;12.27;;
23802;SDS011;12082;51.786;6.018;2023-01-09T04:03:52;14.73;;;13.40;;
23802;SDS011;12082;51.786;6.018;2023-01-09T04:06:18;15.33;;;13.93;;
23802;SDS011;12082;51.786;6.018;2023-01-09T04:08:44;15.80;;;13.37;;
23802;SDS011;12082;51.786;6.018;2023-01-09T04:11:10;14.77;;;13.17;;
23802;SDS011;12082;51.786;6.018;2023-01-09T04:13:36;14.63;;;13.13;;
23802;SDS011;12082;51.786;6.018;2023-01-09T04:16:02;15.00;;;13.47;;
23802;SDS011;12082;51.786;6.018;2023-01-09T04:18:28;14.10;;;13.10;;
23802;SDS011;12082;51.786;6.018;2023-01-09T04:20:54;13.50;;;12.70;;
23802;SDS011;12082;51.786;6.018;2023-01-09T04:23:20;15.93;;;13.77;;
23802;SDS011;12082;51.786;6.018;2023-01-09T04:25:46;14.73;;;13.43;;
23802;SDS011;12082;51.786;6.018;2023-01-09T04:28:12;13.90;;;13.00;;
23802;SDS011;12082;51.786;6.018;2023-01-09T04:30:38;14.47;;;13.13;;
23802;SDS011;12082;51.786;6.018;2023-01-09T04:33:04;14.33;;;13.00;;
23802;SDS011;12082;51.786;6.018;2023-01-09T04:35:30;13.93;;;12.93;;
23802;SDS011;12082;51.786;6.018;2023-01-09T04:37:56;14.40;;;13.00;;
23802;SDS011;12082;51.786;6.018;2023-01-09T04:40:22;13.23;;;12.43;;
23802;SDS011;12082;51.786;6.018;2023-01-09T04:42:48;15.20;;;14.00;;
23802;SDS011;12082;51.786;6.018;2023-01-09T04:45:14;25.10;;;14.07;;
23802;SDS011;12082;51.786;6.018;2023-01-09T04:47:41;19.80;;;14.33;;
23802;SDS011;12082;51.786;6.018;2023-01-09T04:50:08;15.33;;;13.90;;
23802;SDS011;12082;51.786;6.018;2023-01-09T04:52:34;16.00;;;14.33;;
23802;SDS011;12082;51.786;6.018;2023-01-09T04:55:00;16.37;;;14.67;;
23802;SDS011;12082;51.786;6.018;2023-01-09T04:57:26;14.47;;;13.33;;
23802;SDS011;12082;51.786;6.018;2023-01-09T04:59:52;14.83;;;13.73;;
23802;SDS011;12082;51.786;6.018;2023-01-09T05:02:18;15.93;;;14.43;;
23802;SDS011;12082;51.786;6.018;2023-01-09T05:04:44;14.90;;;13.90;;
23802;SDS011;12082;51.786;6.018;2023-01-09T05:07:10;14.90;;;13.67;;
23802;SDS011;12082;51.786;6.018;2023-01-09T05:09:36;17.37;;;13.33;;
23802;SDS011;12082;51.786;6.018;2023-01-09T05:12:02;16.97;;;13.20;;
23802;SDS011;12082;51.786;6.018;2023-01-09T05:14:28;14.00;;;12.87;;
23802;SDS011;12082;51.786;6.018;2023-01-09T05:16:54;14.70;;;13.30;;
23802;SDS011;12082;51.786;6.018;2023-01-09T05:19:20;14.17;;;13.10;;
23802;SDS011;12082;51.786;6.018;2023-01-09T05:21:45;18.07;;;12.67;;
23802;SDS011;12082;51.786;6.018;2023-01-09T05:24:11;14.80;;;12.83;;
23802;SDS011;12082;51.786;6.018;2023-01-09T05:26:40;13.37;;;12.20;;
23802;SDS011;12082;51.786;6.018;2023-01-09T05:29:09;13.67;;;12.37;;
23802;SDS011;12082;51.786;6.018;2023-01-09T05:31:37;15.50;;;12.67;;
23802;SDS011;12082;51.786;6.018;2023-01-09T05:34:06;13.93;;;12.67;;
23802;SDS011;12082;51.786;6.018;2023-01-09T05:36:34;13.90;;;12.57;;
23802;SDS011;12082;51.786;6.018;2023-01-09T05:39:02;12.70;;;11.67;;
23802;SDS011;12082;51.786;6.018;2023-01-09T05:41:31;13.17;;;11.83;;
23802;SDS011;12082;51.786;6.018;2023-01-09T05:43:59;14.20;;;11.33;;
23802;SDS011;12082;51.786;6.018;2023-01-09T05:46:28;12.30;;;11.30;;
23802;SDS011;12082;51.786;6.018;2023-01-09T05:48:56;12.40;;;11.40;;
23802;SDS011;12082;51.786;6.018;2023-01-09T05:51:24;13.13;;;11.47;;
23802;SDS011;12082;51.786;6.018;2023-01-09T05:53:52;13.50;;;12.40;;
23802;SDS011;12082;51.786;6.018;2023-01-09T05:56:20;12.77;;;11.80;;
23802;SDS011;12082;51.786;6.018;2023-01-09T05:58:48;16.33;;;12.20;;
23802;SDS011;12082;51.786;6.018;2023-01-09T06:01:17;12.93;;;11.83;;
23802;SDS011;12082;51.786;6.018;2023-01-09T06:03:45;12.47;;;11.63;;
23802;SDS011;12082;51.786;6.018;2023-01-09T06:06:12;11.93;;;10.97;;
23802;SDS011;12082;51.786;6.018;2023-01-09T06:08:39;23.13;;;11.50;;
23802;SDS011;12082;51.786;6.018;2023-01-09T06:11:06;17.57;;;11.43;;
23802;SDS011;12082;51.786;6.018;2023-01-09T06:13:33;11.80;;;10.67;;
23802;SDS011;12082;51.786;6.018;2023-01-09T06:15:59;11.87;;;10.73;;
23802;SDS011;12082;51.786;6.018;2023-01-09T06:18:24;15.23;;;10.33;;
23802;SDS011;12082;51.786;6.018;2023-01-09T06:20:50;11.83;;;10.70;;
23802;SDS011;12082;51.786;6.018;2023-01-09T06:23:15;15.80;;;12.83;;
23802;SDS011;12082;51.786;6.018;2023-01-09T06:25:41;13.63;;;12.53;;
23802;SDS011;12082;51.786;6.018;2023-01-09T06:28:07;14.40;;;12.57;;
23802;SDS011;12082;51.786;6.018;2023-01-09T06:30:35;13.77;;;12.50;;
23802;SDS011;12082;51.786;6.018;2023-01-09T06:33:03;14.57;;;13.47;;
23802;SDS011;12082;51.786;6.018;2023-01-09T06:35:31;13.80;;;12.73;;
23802;SDS011;12082;51.786;6.018;2023-01-09T06:37:59;14.53;;;13.63;;
23802;SDS011;12082;51.786;6.018;2023-01-09T06:40:26;14.30;;;12.93;;
23802;SDS011;12082;51.786;6.018;2023-01-09T06:42:52;13.60;;;12.33;;
23802;SDS011;12082;51.786;6.018;2023-01-09T06:45:18;12.70;;;11.60;;
23802;SDS011;12082;51.786;6.018;2023-01-09T06:47:43;13.10;;;12.00;;
23802;SDS011;12082;51.786;6.018;2023-01-09T06:50:10;13.60;;;12.67;;
23802;SDS011;12082;51.786;6.018;2023-01-09T06:52:36;17.70;;;13.10;;
23802;SDS011;12082;51.786;6.018;2023-01-09T06:55:03;13.23;;;12.17;;
23802;SDS011;12082;51.786;6.018;2023-01-09T06:57:29;13.30;;;11.97;;
23802;SDS011;12082;51.786;6.018;2023-01-09T06:59:54;12.00;;;10.97;;
23802;SDS011;12082;51.786;6.018;2023-01-09T07:02:20;14.33;;;12.17;;
23802;SDS011;12082;51.786;6.018;2023-01-09T07:04:46;15.97;;;11.50;;
23802;SDS011;12082;51.786;6.018;2023-01-09T07:07:12;14.90;;;11.90;;
23802;SDS011;12082;51.786;6.018;2023-01-09T07:09:38;12.73;;;11.93;;
23802;SDS011;12082;51.786;6.018;2023-01-09T07:12:04;14.60;;;11.37;;
23802;SDS011;12082;51.786;6.018;2023-01-09T07:14:29;18.77;;;12.87;;
23802;SDS011;12082;51.786;6.018;2023-01-09T07:16:55;13.73;;;11.93;;
23802;SDS011;12082;51.786;6.018;2023-01-09T07:19:21;12.30;;;11.33;;
23802;SDS011;12082;51.786;6.018;2023-01-09T07:21:47;11.87;;;10.77;;
23802;SDS011;12082;51.786;6.018;2023-01-09T07:24:12;13.27;;;11.27;;
23802;SDS011;12082;51.786;6.018;2023-01-09T07:26:38;12.67;;;11.40;;
23802;SDS011;12082;51.786;6.018;2023-01-09T07:29:03;12.83;;;10.90;;
23802;SDS011;12082;51.786;6.018;2023-01-09T07:31:29;12.80;;;11.90;;
23802;SDS011;12082;51.786;6.018;2023-01-09T07:33:54;17.53;;;11.50;;
23802;SDS011;12082;51.786;6.018;2023-01-09T07:36:20;12.93;;;11.87;;
23802;SDS011;12082;51.786;6.018;2023-01-09T07:38:46;15.20;;;11.53;;
23802;SDS011;12082;51.786;6.018;2023-01-09T07:41:12;13.83;;;11.73;;
23802;SDS011;12082;51.786;6.018;2023-01-09T07:43:38;13.00;;;11.27;;
23802;SDS011;12082;51.786;6.018;2023-01-09T07:46:03;12.70;;;11.80;;
23802;SDS011;12082;51.786;6.018;2023-01-09T07:48:30;12.90;;;11.73;;
23802;SDS011;12082;51.786;6.018;2023-01-09T07:50:55;12.90;;;11.70;;
23802;SDS011;12082;51.786;6.018;2023-01-09T07:53:21;19.40;;;12.77;;
23802;SDS011;12082;51.786;6.018;2023-01-09T07:55:47;14.47;;;11.63;;
23802;SDS011;12082;51.786;6.018;2023-01-09T07:58:12;16.93;;;11.67;;
23802;SDS011;12082;51.786;6.018;2023-01-09T08:00:38;14.37;;;12.87;;
23802;SDS011;12082;51.786;6.018;2023-01-09T08:03:03;13.83;;;12.37;;
23802;SDS011;12082;51.786;6.018;2023-01-09T08:05:29;16.87;;;12.90;;
23802;SDS011;12082;51.786;6.018;2023-01-09T08:07:54;14.07;;;12.47;;
23802;SDS011;12082;51.786;6.018;2023-01-09T08:10:20;14.27;;;12.73;;
23802;SDS011;12082;51.786;6.018;2023-01-09T08:12:46;15.80;;;12.90;;
23802;SDS011;12082;51.786;6.018;2023-01-09T08:15:13;14.73;;;13.33;;
23802;SDS011;12082;51.786;6.018;2023-01-09T08:17:39;14.63;;;13.33;;
23802;SDS011;12082;51.786;6.018;2023-01-09T08:20:06;15.33;;;12.93;;
23802;SDS011;12082;51.786;6.018;2023-01-09T08:22:34;14.53;;;13.30;;
23802;SDS011;12082;51.786;6.018;2023-01-09T08:25:00;14.80;;;13.47;;
23802;SDS011;12082;51.786;6.018;2023-01-09T08:27:26;17.00;;;13.63;;
23802;SDS011;12082;51.786;6.018;2023-01-09T08:29:51;15.37;;;12.47;;
23802;SDS011;12082;51.786;6.018;2023-01-09T08:32:17;15.37;;;13.93;;
23802;SDS011;12082;51.786;6.018;2023-01-09T08:34:42;15.47;;;14.13;;
23802;SDS011;12082;51.786;6.018;2023-01-09T08:37:08;15.93;;;14.40;;
23802;SDS011;12082;51.786;6.018;2023-01-09T08:39:33;15.47;;;14.17;;
23802;SDS011;12082;51.786;6.018;2023-01-09T08:42:00;14.90;;;13.33;;
23802;SDS011;12082;51.786;6.018;2023-01-09T08:44:44;15.90;;;14.67;;
23802;SDS011;12082;51.786;6.018;2023-01-09T08:47:28;18.13;;;13.60;;
23802;SDS011;12082;51.786;6.018;2023-01-09T08:49:57;16.57;;;14.67;;
23802;SDS011;12082;51.786;6.018;2023-01-09T08:52:23;16.53;;;13.73;;
23802;SDS011;12082;51.786;6.018;2023-01-09T08:54:49;14.13;;;13.00;;
23802;SDS011;12082;51.786;6.018;2023-01-09T08:57:14;15.87;;;14.43;;
23802;SDS011;12082;51.786;6.018;2023-01-09T08:59:40;22.27;;;13.90;;
23802;SDS011;12082;51.786;6.018;2023-01-09T09:02:06;17.63;;;14.00;;
23802;SDS011;12082;51.786;6.018;2023-01-09T09:04:32;15.67;;;14.20;;
23802;SDS011;12082;51.786;6.018;2023-01-09T09:06:57;14.90;;;13.70;;
23802;SDS011;12082;51.786;6.018;2023-01-09T09:09:23;15.30;;;13.93;;
23802;SDS011;12082;51.786;6.018;2023-01-09T09:11:49;15.47;;;13.90;;
23802;SDS011;12082;51.786;6.018;2023-01-09T09:14:15;16.13;;;14.43;;
23802;SDS011;12082;51.786;6.018;2023-01-09T09:16:59;19.80;;;14.70;;
23802;SDS011;12082;51.786;6.018;2023-01-09T09:19:25;15.93;;;14.57;;
23802;SDS011;12082;51.786;6.018;2023-01-09T09:21:50;15.57;;;14.23;;
23802;SDS011;12082;51.786;6.018;2023-01-09T09:24:16;15.67;;;14.10;;
23802;SDS011;12082;51.786;6.018;2023-01-09T09:26:41;15.40;;;14.27;;
23802;SDS011;12082;51.786;6.018;2023-01-09T09:29:07;16.23;;;14.87;;
23802;SDS011;12082;51.786;6.018;2023-01-09T09:31:32;14.80;;;13.50;;
23802;SDS011;12082;51.786;6.018;2023-01-09T09:34:01;14.97;;;13.60;;
23802;SDS011;12082;51.786;6.018;2023-01-09T09:36:29;14.00;;;12.77;;
23802;SDS011;12082;51.786;6.018;2023-01-09T09:38:55;13.27;;;12.33;;
23802;SDS011;12082;51.786;6.018;2023-01-09T09:55:03;13.73;;;12.63;;
23802;SDS011;12082;51.786;6.018;2023-01-09T09:57:33;13.83;;;12.57;;
23802;SDS011;12082;51.786;6.018;2023-01-09T10:00:02;14.93;;;13.67;;
23802;SDS011;12082;51.786;6.018;2023-01-09T10:02:29;14.27;;;13.00;;
23802;SDS011;12082;51.786;6.018;2023-01-09T10:05:03;13.90;;;12.80;;
23802;SDS011;12082;51.786;6.018;2023-01-09T10:07:32;14.60;;;13.40;;
23802;SDS011;12082;51.786;6.018;2023-01-09T10:10:00;14.20;;;12.70;;
23802;SDS011;12082;51.786;6.018;2023-01-09T10:12:50;15.17;;;13.67;;
23802;SDS011;12082;51.786;6.018;2023-01-09T10:15:18;14.27;;;12.97;;
23802;SDS011;12082;51.786;6.018;2023-01-09T10:17:59;14.90;;;13.40;;
23802;SDS011;12082;51.786;6.018;2023-01-09T10:20:39;16.03;;;14.57;;
23802;SDS011;12082;51.786;6.018;2023-01-09T10:26:04;15.63;;;14.03;;
23802;SDS011;12082;51.786;6.018;2023-01-09T10:28:45;14.40;;;13.20;;
23802;SDS011;12082;51.786;6.018;2023-01-09T10:31:34;15.37;;;13.77;;
23802;SDS011;12082;51.786;6.018;2023-01-09T10:34:18;17.20;;;15.60;;
23802;SDS011;12082;51.786;6.018;2023-01-09T10:42:01;17.03;;;15.33;;
23802;SDS011;12082;51.786;6.018;2023-01-09T10:44:33;16.00;;;14.37;;
23802;SDS011;12082;51.786;6.018;2023-01-09T10:47:36;16.20;;;14.50;;
23802;SDS011;12082;51.786;6.018;2023-01-09T10:49:57;16.53;;;14.87;;
23802;SDS011;12082;51.786;6.018;2023-01-09T10:52:32;16.80;;;15.37;;
23802;SDS011;12082;51.786;6.018;2023-01-09T10:57:44;18.00;;;16.47;;
23802;SDS011;12082;51.786;6.018;2023-01-09T11:00:22;17.40;;;15.67;;
23802;SDS011;12082;51.786;6.018;2023-01-09T11:02:49;17.13;;;15.47;;
23802;SDS011;12082;51.786;6.018;2023-01-09T11:05:18;17.23;;;15.63;;
23802;SDS011;12082;51.786;6.018;2023-01-09T11:08:09;18.17;;;16.23;;
23802;SDS011;12082;51.786;6.018;2023-01-09T11:10:48;18.70;;;16.07;;
23802;SDS011;12082;51.786;6.018;2023-01-09T11:13:20;17.33;;;15.80;;
23802;SDS011;12082;51.786;6.018;2023-01-09T11:15:58;16.00;;;14.53;;
23802;SDS011;12082;51.786;6.018;2023-01-09T11:18:26;17.33;;;15.53;;
23802;SDS011;12082;51.786;6.018;2023-01-09T11:20:52;16.07;;;14.40;;
23802;SDS011;12082;51.786;6.018;2023-01-09T11:23:25;19.60;;;14.90;;
23802;SDS011;12082;51.786;6.018;2023-01-09T11:25:54;16.37;;;15.07;;
23802;SDS011;12082;51.786;6.018;2023-01-09T11:28:23;15.53;;;14.37;;
23802;SDS011;12082;51.786;6.018;2023-01-09T11:30:58;15.47;;;13.83;;
23802;SDS011;12082;51.786;6.018;2023-01-09T11:33:35;13.67;;;12.53;;
23802;SDS011;12082;51.786;6.018;2023-01-09T11:36:09;14.67;;;12.80;;
23802;SDS011;12082;51.786;6.018;2023-01-09T11:38:49;13.17;;;12.17;;
23802;SDS011;12082;51.786;6.018;2023-01-09T11:41:19;13.47;;;12.13;;
23802;SDS011;12082;51.786;6.018;2023-01-09T11:43:56;14.03;;;12.23;;
23802;SDS011;12082;51.786;6.018;2023-01-09T11:49:02;12.87;;;11.50;;
23802;SDS011;12082;51.786;6.018;2023-01-09T11:51:31;13.67;;;12.47;;
23802;SDS011;12082;51.786;6.018;2023-01-09T11:56:26;11.63;;;10.73;;
23802;SDS011;12082;51.786;6.018;2023-01-09T11:58:52;13.80;;;12.47;;
23802;SDS011;12082;51.786;6.018;2023-01-09T12:04:06;12.23;;;11.13;;
23802;SDS011;12082;51.786;6.018;2023-01-09T12:20:39;12.97;;;11.80;;
23802;SDS011;12082;51.786;6.018;2023-01-09T12:23:22;13.50;;;12.43;;
23802;SDS011;12082;51.786;6.018;2023-01-09T12:34:15;13.97;;;12.57;;
23802;SDS011;12082;51.786;6.018;2023-01-09T12:40:06;13.03;;;11.90;;
23802;SDS011;12082;51.786;6.018;2023-01-09T12:47:52;12.07;;;10.83;;
23802;SDS011;12082;51.786;6.018;2023-01-09T12:53:24;13.27;;;11.20;;
23802;SDS011;12082;51.786;6.018;2023-01-09T13:01:12;12.40;;;11.20;;
23802;SDS011;12082;51.786;6.018;2023-01-09T13:03:47;12.67;;;10.50;;
23802;SDS011;12082;51.786;6.018;2023-01-09T13:06:21;12.10;;;10.87;;
23802;SDS011;12082;51.786;6.018;2023-01-09T13:08:51;10.90;;;9.97;;
23802;SDS011;12082;51.786;6.018;2023-01-09T13:11:38;12.20;;;10.30;;
23802;SDS011;12082;51.786;6.018;2023-01-09T13:14:14;11.33;;;10.23;;
23802;SDS011;12082;51.786;6.018;2023-01-09T13:16:46;12.07;;;10.50;;
23802;SDS011;12082;51.786;6.018;2023-01-09T13:19:31;10.13;;;9.43;;
23802;SDS011;12082;51.786;6.018;2023-01-09T13:22:01;10.93;;;10.00;;
23802;SDS011;12082;51.786;6.018;2023-01-09T13:27:21;17.57;;;12.17;;
23802;SDS011;12082;51.786;6.018;2023-01-09T13:29:49;14.00;;;12.67;;
23802;SDS011;12082;51.786;6.018;2023-01-09T13:32:44;15.00;;;13.23;;
23802;SDS011;12082;51.786;6.018;2023-01-09T13:35:27;18.03;;;14.00;;
23802;SDS011;12082;51.786;6.018;2023-01-09T13:37:52;15.80;;;13.43;;
23802;SDS011;12082;51.786;6.018;2023-01-09T13:42:53;14.87;;;13.27;;
23802;SDS011;12082;51.786;6.018;2023-01-09T13:45:30;17.47;;;13.93;;
23802;SDS011;12082;51.786;6.018;2023-01-09T13:48:37;15.90;;;13.20;;
23802;SDS011;12082;51.786;6.018;2023-01-09T13:50:52;14.30;;;12.90;;
23802;SDS011;12082;51.786;6.018;2023-01-09T13:53:41;14.57;;;13.03;;
23802;SDS011;12082;51.786;6.018;2023-01-09T13:56:08;13.50;;;12.27;;
23802;SDS011;12082;51.786;6.018;2023-01-09T14:06:37;12.20;;;11.43;;
23802;SDS011;12082;51.786;6.018;2023-01-09T14:09:07;11.43;;;10.63;;
23802;SDS011;12082;51.786;6.018;2023-01-09T14:11:39;11.70;;;10.70;;
23802;SDS011;12082;51.786;6.018;2023-01-09T14:14:06;12.60;;;11.57;;
23802;SDS011;12082;51.786;6.018;2023-01-09T14:16:44;12.73;;;11.70;;
23802;SDS011;12082;51.786;6.018;2023-01-09T14:22:17;12.70;;;11.67;;
23802;SDS011;12082;51.786;6.018;2023-01-09T14:24:51;12.67;;;11.57;;
23802;SDS011;12082;51.786;6.018;2023-01-09T14:33:33;13.00;;;11.90;;
23802;SDS011;12082;51.786;6.018;2023-01-09T14:46:53;12.40;;;11.40;;
23802;SDS011;12082;51.786;6.018;2023-01-09T14:49:33;16.07;;;12.87;;
23802;SDS011;12082;51.786;6.018;2023-01-09T14:52:46;14.97;;;13.43;;
23802;SDS011;12082;51.786;6.018;2023-01-09T14:54:58;20.33;;;13.20;;
23802;SDS011;12082;51.786;6.018;2023-01-09T14:57:29;20.53;;;14.60;;
23802;SDS011;12082;51.786;6.018;2023-01-09T14:59:58;15.23;;;14.03;;
23802;SDS011;12082;51.786;6.018;2023-01-09T15:02:26;14.80;;;13.67;;
23802;SDS011;12082;51.786;6.018;2023-01-09T15:04:55;15.43;;;13.83;;
23802;SDS011;12082;51.786;6.018;2023-01-09T15:07:25;14.67;;;12.77;;
23802;SDS011;12082;51.786;6.018;2023-01-09T15:10:01;16.73;;;14.30;;
23802;SDS011;12082;51.786;6.018;2023-01-09T15:12:27;14.53;;;13.10;;
23802;SDS011;12082;51.786;6.018;2023-01-09T15:14:56;14.13;;;12.83;;
23802;SDS011;12082;51.786;6.018;2023-01-09T15:17:25;15.37;;;13.03;;
23802;SDS011;12082;51.786;6.018;2023-01-09T15:19:54;13.20;;;11.90;;
23802;SDS011;12082;51.786;6.018;2023-01-09T15:22:22;16.07;;;12.20;;
23802;SDS011;12082;51.786;6.018;2023-01-09T15:24:51;12.40;;;11.30;;
23802;SDS011;12082;51.786;6.018;2023-01-09T15:27:17;26.37;;;12.20;;
23802;SDS011;12082;51.786;6.018;2023-01-09T15:29:45;12.97;;;11.73;;
23802;SDS011;12082;51.786;6.018;2023-01-09T15:34:43;19.23;;;13.67;;
23802;SDS011;12082;51.786;6.018;2023-01-09T15:37:18;17.87;;;12.60;;
23802;SDS011;12082;51.786;6.018;2023-01-09T15:39:54;16.97;;;12.27;;
23802;SDS011;12082;51.786;6.018;2023-01-09T15:42:25;17.87;;;12.60;;
23802;SDS011;12082;51.786;6.018;2023-01-09T15:45:17;22.33;;;14.20;;
23802;SDS011;12082;51.786;6.018;2023-01-09T15:47:48;15.37;;;12.77;;
23802;SDS011;12082;51.786;6.018;2023-01-09T15:50:15;27.93;;;13.17;;
23802;SDS011;12082;51.786;6.018;2023-01-09T15:52:42;15.20;;;13.07;;
23802;SDS011;12082;51.786;6.018;2023-01-09T15:55:14;22.63;;;14.03;;
23802;SDS011;12082;51.786;6.018;2023-01-09T15:57:49;15.13;;;13.60;;
23802;SDS011;12082;51.786;6.018;2023-01-09T16:00:30;18.53;;;13.33;;
23802;SDS011;12082;51.786;6.018;2023-01-09T16:02:58;16.87;;;13.17;;
23802;SDS011;12082;51.786;6.018;2023-01-09T16:05:39;20.63;;;13.77;;
23802;SDS011;12082;51.786;6.018;2023-01-09T16:08:13;18.60;;;13.67;;
23802;SDS011;12082;51.786;6.018;2023-01-09T16:10:47;24.37;;;14.37;;
23802;SDS011;12082;51.786;6.018;2023-01-09T16:13:20;19.00;;;14.37;;
23802;SDS011;12082;51.786;6.018;2023-01-09T16:15:48;25.13;;;14.50;;
23802;SDS011;12082;51.786;6.018;2023-01-09T16:20:40;16.03;;;14.47;;
23802;SDS011;12082;51.786;6.018;2023-01-09T16:23:19;24.40;;;14.53;;
23802;SDS011;12082;51.786;6.018;2023-01-09T16:28:50;15.87;;;14.47;;
23802;SDS011;12082;51.786;6.018;2023-01-09T16:33:48;23.17;;;13.83;;
23802;SDS011;12082;51.786;6.018;2023-01-09T16:36:18;16.53;;;13.50;;
23802;SDS011;12082;51.786;6.018;2023-01-09T16:38:45;13.73;;;12.33;;
23802;SDS011;12082;51.786;6.018;2023-01-09T16:44:00;17.50;;;12.73;;
23802;SDS011;12082;51.786;6.018;2023-01-09T16:46:28;28.00;;;13.33;;
23802;SDS011;12082;51.786;6.018;2023-01-09T16:48:53;22.13;;;13.50;;
23802;SDS011;12082;51.786;6.018;2023-01-09T16:51:20;17.00;;;13.27;;